Time;durP1;ratioP1;P1;durP2;ratioP2;P2;SDS_P1;SDS_P2;PMS_P1;PMS_P2;Temp;Humidity;BMP_temperature;BMP_pressure;BME280_temperature;BME280_humidity;BME280_pressure;Samples;Min_cycle;Max_cycle;Signal;HPM_P1;HPM_P2
2020/12/30 00:01:29;;;;;;;5.40;3.50;;;3.60;99.90;;;;;;5093257;28;20032;-69
2020/12/30 00:03:54;;;;;;;6.78;3.85;;;3.50;99.90;;;;;;5093802;28;20024;-68
2020/12/30 00:06:20;;;;;;;8.20;4.35;;;3.50;99.90;;;;;;5094192;28;20028;-69
2020/12/30 00:08:49;;;;;;;10.95;4.10;;;3.50;99.90;;;;;;5092788;28;20016;-69
2020/12/30 00:11:18;;;;;;;6.95;4.53;;;3.50;99.90;;;;;;5092980;28;20060;-68
2020/12/30 00:13:45;;;;;;;8.40;4.45;;;3.60;99.90;;;;;;5093336;28;20020;-68
2020/12/30 00:16:10;;;;;;;11.25;5.40;;;3.60;99.90;;;;;;5093027;28;20024;-68
2020/12/30 00:18:36;;;;;;;9.70;5.00;;;3.60;99.90;;;;;;5093324;28;20376;-68
2020/12/30 00:21:04;;;;;;;5.75;4.40;;;3.60;99.90;;;;;;5092841;28;20024;-67
2020/12/30 00:23:29;;;;;;;5.43;4.20;;;3.60;99.90;;;;;;5092958;28;20034;-68
2020/12/30 00:25:55;;;;;;;10.18;4.57;;;3.50;99.90;;;;;;5079024;28;20364;-68
2020/12/30 00:28:20;;;;;;;5.68;4.43;;;3.60;99.90;;;;;;5092706;28;20016;-68
2020/12/30 00:30:46;;;;;;;6.25;4.45;;;3.60;99.90;;;;;;5093420;28;20036;-68
2020/12/30 00:33:12;;;;;;;7.38;4.15;;;3.60;99.90;;;;;;5093366;28;20510;-68
2020/12/30 00:35:38;;;;;;;7.50;4.45;;;3.60;99.90;;;;;;5092426;28;20107;-68
2020/12/30 00:38:03;;;;;;;7.88;5.43;;;3.60;99.90;;;;;;5093061;28;20138;-68
2020/12/30 00:40:29;;;;;;;6.95;4.70;;;3.60;99.90;;;;;;5092541;28;20061;-68
2020/12/30 00:42:54;;;;;;;8.02;5.25;;;3.60;99.90;;;;;;5092070;28;20156;-68
2020/12/30 00:45:20;;;;;;;6.25;4.85;;;3.60;99.90;;;;;;5092871;28;20020;-68
2020/12/30 00:47:45;;;;;;;8.25;5.70;;;3.70;99.90;;;;;;5093175;28;20024;-69
2020/12/30 00:50:11;;;;;;;10.55;6.28;;;3.70;99.90;;;;;;5092214;28;20381;-69
2020/12/30 00:52:36;;;;;;;9.35;6.47;;;3.70;99.90;;;;;;5085498;28;20468;-69
2020/12/30 00:55:03;;;;;;;12.23;6.40;;;3.70;99.90;;;;;;5074230;28;20024;-69
2020/12/30 00:57:29;;;;;;;9.57;6.63;;;3.70;99.90;;;;;;5083375;28;20165;-69
2020/12/30 00:59:54;;;;;;;12.38;6.93;;;3.70;99.90;;;;;;5086800;28;20016;-69
2020/12/30 01:02:20;;;;;;;12.88;6.72;;;3.80;99.90;;;;;;5086268;28;20017;-69
2020/12/30 01:04:46;;;;;;;10.80;7.55;;;3.80;99.90;;;;;;5083868;28;20379;-68
2020/12/30 01:07:12;;;;;;;10.85;7.03;;;3.70;99.90;;;;;;5092556;28;20016;-68
2020/12/30 01:09:37;;;;;;;14.80;7.95;;;3.70;99.90;;;;;;5092307;28;20052;-69
2020/12/30 01:12:04;;;;;;;15.07;7.88;;;3.70;99.90;;;;;;5091329;28;20086;-68
2020/12/30 01:14:30;;;;;;;11.13;7.85;;;3.70;99.90;;;;;;5092687;28;20412;-69
2020/12/30 01:16:56;;;;;;;17.27;9.32;;;3.70;99.90;;;;;;5092500;28;20048;-68
2020/12/30 01:19:22;;;;;;;18.38;8.73;;;3.70;99.90;;;;;;5091572;28;20030;-68
2020/12/30 01:21:48;;;;;;;17.75;10.13;;;3.70;99.90;;;;;;5092243;28;20099;-68
2020/12/30 01:24:14;;;;;;;12.70;9.55;;;3.70;99.90;;;;;;5090723;28;20466;-68
2020/12/30 01:26:41;;;;;;;17.63;10.27;;;3.70;99.90;;;;;;5078468;28;20103;-68
2020/12/30 01:29:07;;;;;;;17.85;10.07;;;3.80;99.90;;;;;;5092487;28;20032;-69
2020/12/30 01:31:34;;;;;;;17.80;9.93;;;3.70;99.90;;;;;;5091042;28;20074;-67
2020/12/30 01:34:00;;;;;;;17.08;11.45;;;3.70;99.90;;;;;;5092018;28;20017;-67
2020/12/30 01:36:26;;;;;;;14.23;9.10;;;3.70;99.90;;;;;;5091609;28;20028;-67
2020/12/30 01:38:53;;;;;;;20.00;10.95;;;3.70;99.90;;;;;;5091637;28;20050;-68
2020/12/30 01:41:19;;;;;;;16.63;9.98;;;3.70;99.90;;;;;;5091579;28;20024;-68
2020/12/30 01:44:06;;;;;;;17.35;9.93;;;3.70;99.90;;;;;;5092607;28;20028;-68
2020/12/30 01:46:45;;;;;;;17.65;10.55;;;3.70;99.90;;;;;;5090669;28;20035;-68
2020/12/30 01:49:18;;;;;;;16.20;9.43;;;3.70;99.90;;;;;;5091913;28;20028;-68
2020/12/30 01:51:44;;;;;;;17.17;9.48;;;3.70;99.90;;;;;;5091166;28;20044;-68
2020/12/30 01:54:16;;;;;;;15.15;9.15;;;3.70;99.90;;;;;;5090669;28;20020;-68
2020/12/30 01:56:43;;;;;;;14.77;9.60;;;3.70;99.90;;;;;;5091629;28;20048;-68
2020/12/30 01:59:10;;;;;;;18.48;9.50;;;3.70;99.90;;;;;;5091979;28;20028;-68
2020/12/30 02:01:38;;;;;;;15.18;9.02;;;3.70;99.90;;;;;;5090943;28;20031;-68
2020/12/30 02:04:10;;;;;;;17.90;10.80;;;3.70;99.90;;;;;;5091954;28;20016;-70
2020/12/30 02:06:36;;;;;;;17.73;9.85;;;3.60;99.90;;;;;;5090827;28;20612;-69
2020/12/30 02:09:04;;;;;;;16.77;9.65;;;3.60;99.90;;;;;;5089963;28;20031;-69
2020/12/30 02:11:30;;;;;;;15.32;9.25;;;3.60;99.90;;;;;;5091073;28;20056;-69
2020/12/30 02:14:01;;;;;;;17.17;10.60;;;3.60;99.90;;;;;;5090570;28;20075;-68
2020/12/30 02:16:27;;;;;;;17.10;10.67;;;3.50;99.90;;;;;;5091174;28;20035;-68
2020/12/30 02:18:52;;;;;;;17.05;11.18;;;3.60;99.90;;;;;;5091146;28;20403;-68
2020/12/30 02:21:18;;;;;;;21.30;11.10;;;3.60;99.90;;;;;;5090404;28;20034;-68
2020/12/30 02:23:45;;;;;;;18.08;9.52;;;3.70;99.90;;;;;;5091187;28;20032;-68
2020/12/30 02:26:10;;;;;;;17.83;10.02;;;3.70;99.90;;;;;;5076992;28;20025;-68
2020/12/30 02:28:36;;;;;;;14.50;9.63;;;3.70;99.90;;;;;;5090263;28;20024;-69
2020/12/30 02:31:02;;;;;;;14.80;9.98;;;3.80;99.90;;;;;;5090938;28;20128;-69
2020/12/30 02:33:27;;;;;;;18.08;10.73;;;3.80;99.90;;;;;;5090717;28;20028;-69
2020/12/30 02:35:53;;;;;;;19.40;9.40;;;3.80;99.90;;;;;;5090474;28;20530;-68
2020/12/30 02:38:22;;;;;;;17.33;10.07;;;3.70;99.90;;;;;;5090830;28;20020;-68
2020/12/30 02:40:48;;;;;;;15.10;9.63;;;3.70;99.90;;;;;;5083649;28;20024;-68
2020/12/30 02:43:15;;;;;;;23.65;11.35;;;3.60;99.90;;;;;;5090057;28;20024;-68
2020/12/30 02:45:41;;;;;;;18.10;10.65;;;3.60;99.90;;;;;;5090851;28;20109;-68
2020/12/30 02:48:07;;;;;;;14.85;10.18;;;3.50;99.90;;;;;;5091174;28;20016;-68
2020/12/30 02:50:32;;;;;;;17.80;10.57;;;3.60;99.90;;;;;;5075466;28;20028;-68
2020/12/30 02:52:58;;;;;;;18.73;9.30;;;3.50;99.90;;;;;;5091267;28;20087;-67
2020/12/30 02:55:23;;;;;;;15.90;8.93;;;3.50;99.90;;;;;;5090545;28;20107;-68
2020/12/30 02:57:49;;;;;;;14.98;8.65;;;3.50;99.90;;;;;;5082972;28;20152;-68
2020/12/30 03:00:14;;;;;;;13.68;7.97;;;3.50;99.90;;;;;;5083541;28;20111;-68
2020/12/30 03:02:40;;;;;;;15.80;8.63;;;3.50;99.90;;;;;;5090420;28;20121;-68
2020/12/30 03:05:05;;;;;;;11.27;7.35;;;3.40;99.90;;;;;;5094176;28;20161;-68
2020/12/30 03:07:31;;;;;;;11.15;7.13;;;3.50;99.90;;;;;;5094752;28;20020;-68
2020/12/30 03:09:56;;;;;;;11.93;6.38;;;3.50;99.90;;;;;;5094361;28;20039;-68
2020/12/30 03:12:22;;;;;;;8.65;5.75;;;3.40;99.90;;;;;;5094081;28;20507;-67
2020/12/30 03:14:47;;;;;;;11.50;5.47;;;3.50;99.90;;;;;;5088365;28;20112;-68
2020/12/30 03:17:13;;;;;;;6.78;4.97;;;3.50;99.90;;;;;;5086003;28;20024;-68
2020/12/30 03:19:38;;;;;;;7.97;3.75;;;3.50;99.90;;;;;;5094545;28;20024;-68
2020/12/30 03:22:04;;;;;;;5.20;3.65;;;3.50;99.90;;;;;;5094755;28;20032;-68
2020/12/30 03:24:29;;;;;;;6.82;3.50;;;3.50;99.90;;;;;;5093500;28;20036;-68
2020/12/30 03:26:55;;;;;;;4.05;2.63;;;3.60;99.90;;;;;;5094557;28;20024;-68
2020/12/30 03:29:20;;;;;;;5.90;2.63;;;3.60;99.90;;;;;;5094057;28;20031;-68
2020/12/30 03:31:46;;;;;;;4.35;2.30;;;3.60;99.90;;;;;;5093732;28;20447;-68
2020/12/30 03:34:11;;;;;;;4.13;2.60;;;3.60;99.90;;;;;;5094650;28;20028;-68
2020/12/30 03:36:37;;;;;;;2.47;1.85;;;3.60;99.90;;;;;;5093793;28;20012;-67
2020/12/30 03:39:03;;;;;;;3.83;2.00;;;3.60;99.90;;;;;;5093540;28;20031;-68
2020/12/30 03:41:29;;;;;;;3.90;1.98;;;3.70;99.90;;;;;;5093736;28;20028;-67
2020/12/30 03:43:54;;;;;;;2.55;1.67;;;3.60;99.90;;;;;;5094149;28;20080;-68
2020/12/30 03:46:20;;;;;;;7.45;2.60;;;3.60;99.90;;;;;;5093122;28;20054;-68
2020/12/30 03:48:45;;;;;;;3.20;1.55;;;3.70;99.90;;;;;;5089159;28;20472;-67
2020/12/30 03:51:11;;;;;;;3.35;1.73;;;3.70;99.90;;;;;;5084850;28;20028;-69
2020/12/30 03:53:36;;;;;;;1.73;1.60;;;3.70;99.90;;;;;;5092830;28;20020;-68
2020/12/30 03:56:02;;;;;;;3.08;1.60;;;3.70;99.90;;;;;;5094091;28;20051;-68
2020/12/30 03:58:27;;;;;;;1.60;1.45;;;3.70;99.90;;;;;;5093338;28;20464;-68
2020/12/30 04:00:54;;;;;;;1.80;1.65;;;3.70;99.90;;;;;;5093245;28;20020;-67
2020/12/30 04:03:19;;;;;;;4.28;1.60;;;3.60;99.90;;;;;;5093389;28;20028;-68
2020/12/30 04:05:45;;;;;;;7.15;1.88;;;3.60;99.90;;;;;;5093598;28;20038;-67
2020/12/30 04:08:10;;;;;;;4.05;1.60;;;3.70;99.90;;;;;;5092719;28;20451;-68
2020/12/30 04:10:36;;;;;;;3.25;1.30;;;3.60;99.90;;;;;;5093063;28;20100;-67
2020/12/30 04:13:01;;;;;;;2.33;1.50;;;3.60;99.90;;;;;;5092479;28;20514;-68
2020/12/30 04:15:27;;;;;;;4.07;1.58;;;3.60;99.90;;;;;;5092033;28;20024;-68
2020/12/30 04:17:52;;;;;;;3.35;1.90;;;3.70;99.90;;;;;;5093435;28;20482;-68
2020/12/30 04:20:18;;;;;;;3.17;1.73;;;3.80;99.90;;;;;;5092472;28;20063;-68
2020/12/30 04:22:43;;;;;;;3.50;1.88;;;3.70;99.90;;;;;;5093128;28;20059;-68
2020/12/30 04:25:10;;;;;;;4.28;1.95;;;3.80;99.90;;;;;;5093315;28;20028;-68
2020/12/30 04:27:35;;;;;;;8.75;2.20;;;3.80;99.90;;;;;;5092143;28;20024;-68
2020/12/30 04:30:02;;;;;;;5.32;2.10;;;3.80;99.90;;;;;;5093056;28;20024;-68
2020/12/30 04:32:28;;;;;;;3.15;2.22;;;3.70;99.90;;;;;;5092695;28;20024;-68
2020/12/30 04:34:53;;;;;;;6.20;2.30;;;3.80;99.90;;;;;;5092759;28;20388;-68
2020/12/30 04:37:19;;;;;;;4.15;2.30;;;3.80;99.90;;;;;;5093023;28;20016;-67
2020/12/30 04:39:44;;;;;;;4.53;2.30;;;3.70;99.90;;;;;;5093102;28;20028;-68
2020/12/30 04:42:11;;;;;;;16.20;4.20;;;3.70;99.90;;;;;;5092213;28;20028;-67
2020/12/30 04:44:41;;;;;;;5.45;2.60;;;3.80;99.90;;;;;;5092312;28;20032;-69
2020/12/30 04:47:07;;;;;;;6.35;3.28;;;3.70;99.90;;;;;;5093011;28;20039;-67
2020/12/30 04:49:32;;;;;;;2.85;2.38;;;3.80;99.90;;;;;;5080172;28;20029;-69
2020/12/30 04:51:59;;;;;;;6.40;2.45;;;3.80;99.90;;;;;;5089959;28;20086;-69
2020/12/30 04:54:25;;;;;;;3.15;2.10;;;3.80;99.90;;;;;;5092416;28;20032;-69
2020/12/30 04:56:58;;;;;;;4.40;2.45;;;3.90;99.90;;;;;;5091912;28;20032;-68
2020/12/30 04:59:27;;;;;;;3.85;2.20;;;3.90;99.90;;;;;;5092566;28;20062;-68
2020/12/30 05:02:04;;;;;;;4.95;2.53;;;3.90;99.90;;;;;;5092276;28;20043;-68
2020/12/30 05:04:31;;;;;;;2.65;2.08;;;3.90;99.90;;;;;;5091524;28;20421;-68
2020/12/30 05:07:00;;;;;;;4.30;2.42;;;3.90;99.90;;;;;;5092350;28;20024;-68
2020/12/30 05:09:27;;;;;;;8.88;2.80;;;4.00;99.90;;;;;;5091331;28;20436;-68
2020/12/30 05:11:53;;;;;;;4.05;2.40;;;4.00;99.90;;;;;;5092290;28;20055;-68
2020/12/30 05:14:18;;;;;;;1.80;1.48;;;4.00;99.90;;;;;;5091767;28;20016;-68
2020/12/30 05:16:44;;;;;;;2.97;1.70;;;4.00;99.90;;;;;;5091844;28;20033;-68
2020/12/30 05:19:09;;;;;;;4.03;1.80;;;4.10;99.90;;;;;;5092203;28;20031;-69
2020/12/30 05:21:35;;;;;;;1.92;1.63;;;4.10;99.90;;;;;;5091970;28;20427;-68
2020/12/30 05:24:04;;;;;;;4.00;1.80;;;4.20;99.90;;;;;;5091140;28;20024;-68
2020/12/30 05:26:31;;;;;;;5.20;1.90;;;4.20;99.90;;;;;;5091864;28;20384;-68
2020/12/30 05:28:58;;;;;;;3.70;1.60;;;4.20;99.90;;;;;;5091214;28;20051;-68
2020/12/30 05:31:23;;;;;;;2.72;1.90;;;4.20;99.90;;;;;;5090539;28;20127;-68
2020/12/30 05:33:49;;;;;;;2.72;1.50;;;4.20;99.90;;;;;;5092053;28;20519;-68
2020/12/30 05:36:15;;;;;;;5.95;2.10;;;4.30;99.90;;;;;;5091213;28;20027;-68
2020/12/30 05:38:40;;;;;;;4.15;1.63;;;4.30;99.90;;;;;;5091081;28;20047;-68
2020/12/30 05:41:17;;;;;;;2.38;1.63;;;4.30;99.90;;;;;;5091712;28;20089;-68
2020/12/30 05:43:42;;;;;;;3.70;1.45;;;4.30;99.90;;;;;;5091823;28;20102;-69
2020/12/30 05:46:08;;;;;;;3.90;2.08;;;4.30;99.90;;;;;;5090854;28;20119;-68
2020/12/30 05:48:34;;;;;;;3.78;1.90;;;4.30;99.90;;;;;;5088036;28;20142;-68
2020/12/30 05:50:59;;;;;;;3.95;2.10;;;4.30;99.90;;;;;;5080865;28;20085;-68
2020/12/30 05:53:25;;;;;;;4.18;1.92;;;4.30;99.90;;;;;;5090830;28;20041;-68
2020/12/30 05:55:52;;;;;;;3.30;1.92;;;4.30;99.90;;;;;;5091453;28;20035;-68
2020/12/30 05:58:18;;;;;;;4.95;2.30;;;4.40;99.90;;;;;;5091601;28;20104;-68
2020/12/30 06:00:44;;;;;;;2.80;2.20;;;4.40;99.90;;;;;;5090753;28;20103;-68
2020/12/30 06:03:14;;;;;;;4.47;2.47;;;4.40;99.90;;;;;;5091597;28;20061;-69
2020/12/30 06:05:39;;;;;;;5.55;2.70;;;4.40;99.90;;;;;;5090448;28;20118;-68
2020/12/30 06:08:05;;;;;;;3.30;2.55;;;4.40;99.90;;;;;;5091557;28;20179;-68
2020/12/30 06:10:32;;;;;;;4.55;2.67;;;4.40;99.90;;;;;;5090981;28;20114;-69
2020/12/30 06:12:58;;;;;;;2.78;2.33;;;4.40;99.90;;;;;;5090665;28;20117;-68
2020/12/30 06:15:25;;;;;;;6.10;3.00;;;4.40;99.90;;;;;;5090899;28;20030;-68
2020/12/30 06:17:53;;;;;;;3.50;3.20;;;4.40;99.90;;;;;;5091314;28;20024;-67
2020/12/30 06:20:24;;;;;;;9.55;3.10;;;4.40;99.90;;;;;;5089940;28;20027;-67
2020/12/30 06:22:54;;;;;;;7.45;3.72;;;4.40;99.90;;;;;;5091029;28;20548;-67
2020/12/30 06:25:21;;;;;;;9.97;3.83;;;4.40;99.90;;;;;;5090955;28;20034;-67
2020/12/30 06:27:48;;;;;;;4.47;3.92;;;4.40;99.90;;;;;;5090285;28;20301;-67
2020/12/30 06:30:14;;;;;;;7.15;3.80;;;4.40;99.90;;;;;;5090780;28;20034;-67
2020/12/30 06:32:40;;;;;;;5.22;4.40;;;4.40;99.90;;;;;;5090724;28;20032;-68
2020/12/30 06:35:06;;;;;;;6.05;3.75;;;4.30;99.90;;;;;;5090310;28;20028;-68
2020/12/30 06:37:33;;;;;;;7.13;4.28;;;4.40;99.90;;;;;;5090856;28;20024;-68
2020/12/30 06:40:29;;;;;;;8.98;4.90;;;4.30;99.90;;;;;;5093865;28;20115;-67
2020/12/30 06:42:57;;;;;;;8.13;4.72;;;4.30;99.90;;;;;;5078150;28;20037;-68
2020/12/30 06:45:49;;;;;;;12.68;6.18;;;4.20;99.90;;;;;;5077211;28;20024;-68
2020/12/30 06:48:16;;;;;;;8.70;5.70;;;4.20;99.90;;;;;;5075946;28;20039;-68
2020/12/30 06:50:42;;;;;;;10.85;5.97;;;4.20;99.90;;;;;;5087137;28;20020;-68
2020/12/30 06:53:28;;;;;;;6.97;5.28;;;4.20;99.90;;;;;;5078275;28;20029;-67
2020/12/30 06:55:55;;;;;;;12.45;6.63;;;4.20;99.90;;;;;;5079401;28;20021;-67
2020/12/30 06:58:49;;;;;;;11.15;6.05;;;4.30;99.90;;;;;;5072818;28;20082;-67
2020/12/30 07:01:20;;;;;;;12.43;6.10;;;4.30;99.90;;;;;;5073202;28;20025;-67
2020/12/30 07:03:47;;;;;;;;;;;4.30;99.90;;;;;;5073433;28;20456;-68
2020/12/30 07:06:29;;;;;;;10.07;6.22;;;4.30;99.90;;;;;;5083628;28;19908;-67
2020/12/30 07:08:57;;;;;;;10.82;5.75;;;4.30;99.90;;;;;;5090409;28;20108;-67
2020/12/30 07:11:48;;;;;;;12.90;5.95;;;4.30;99.90;;;;;;5092423;28;20119;-67
2020/12/30 07:14:14;;;;;;;;;;;4.40;99.90;;;;;;5082118;28;20058;-69
2020/12/30 07:16:46;;;;;;;4.72;3.55;;;4.40;99.90;;;;;;5092855;28;19906;-68
2020/12/30 07:19:20;;;;;;;8.85;4.70;;;4.40;99.90;;;;;;5083011;28;20123;-68
2020/12/30 07:22:04;;;;;;;6.40;3.53;;;4.40;99.90;;;;;;5091662;28;20016;-68
2020/12/30 07:24:40;;;;;;;9.43;3.15;;;4.40;99.90;;;;;;5084602;28;20524;-68
2020/12/30 07:27:13;;;;;;;5.47;3.50;;;4.30;99.90;;;;;;5087758;28;20051;-68
2020/12/30 07:29:43;;;;;;;5.75;2.88;;;4.30;99.90;;;;;;5088964;28;20051;-68
2020/12/30 07:32:10;;;;;;;4.17;3.00;;;4.30;99.90;;;;;;5089746;28;20089;-68
2020/12/30 07:34:40;;;;;;;5.50;3.13;;;4.30;99.90;;;;;;5091370;28;20024;-69
2020/12/30 07:37:06;;;;;;;6.15;3.15;;;4.20;99.90;;;;;;5093776;28;20021;-67
2020/12/30 07:39:37;;;;;;;10.38;5.18;;;4.20;99.90;;;;;;5091709;28;20031;-68
2020/12/30 07:42:04;;;;;;;4.70;2.90;;;4.10;99.90;;;;;;5086136;28;20039;-68
2020/12/30 07:44:29;;;;;;;4.20;2.30;;;4.10;99.90;;;;;;5083338;28;20077;-68
2020/12/30 07:47:05;;;;;;;3.67;2.20;;;4.20;99.90;;;;;;5085580;28;20423;-68
2020/12/30 07:49:31;;;;;;;6.18;2.47;;;4.20;99.90;;;;;;5073298;28;20064;-68
2020/12/30 07:51:59;;;;;;;4.20;2.58;;;4.30;99.90;;;;;;5088985;28;20042;-68
2020/12/30 07:54:26;;;;;;;4.50;1.90;;;4.30;99.90;;;;;;5093665;28;20024;-68
2020/12/30 07:57:09;;;;;;;1.88;1.75;;;4.40;99.90;;;;;;5093840;28;20028;-69
2020/12/30 07:59:37;;;;;;;5.30;2.40;;;4.40;99.90;;;;;;5092975;28;20417;-68
2020/12/30 08:02:04;;;;;;;3.75;2.92;;;4.40;99.90;;;;;;5093760;28;20111;-68
2020/12/30 08:04:32;;;;;;;3.60;2.13;;;4.40;99.90;;;;;;5093210;28;20016;-68
2020/12/30 08:06:58;;;;;;;2.78;1.80;;;4.50;99.90;;;;;;5092832;28;20020;-68
2020/12/30 08:09:31;;;;;;;1.58;1.42;;;4.50;99.90;;;;;;5083713;28;20103;-69
2020/12/30 08:12:03;;;;;;;2.63;1.75;;;4.50;99.90;;;;;;5088308;28;20130;-69
2020/12/30 08:14:29;;;;;;;1.50;1.40;;;4.50;99.90;;;;;;5085478;28;20028;-68
2020/12/30 08:17:06;;;;;;;3.17;1.85;;;4.50;99.90;;;;;;5071766;28;20043;-67
2020/12/30 08:19:44;;;;;;;3.33;1.30;;;4.50;99.90;;;;;;5072202;28;20485;-67
2020/12/30 08:22:19;;;;;;;5.80;1.98;;;4.50;99.90;;;;;;5072033;28;20021;-68
2020/12/30 08:24:50;;;;;;;2.20;2.00;;;4.50;99.90;;;;;;5071052;28;20055;-68
2020/12/30 08:27:17;;;;;;;6.70;3.95;;;4.50;99.90;;;;;;5069937;28;20082;-67
2020/12/30 08:29:44;;;;;;;8.73;4.65;;;4.60;99.90;;;;;;5071089;28;20116;-69
2020/12/30 08:32:32;;;;;;;9.68;4.88;;;4.60;99.90;;;;;;5080549;28;20403;-68
2020/12/30 08:35:06;;;;;;;9.07;5.68;;;4.60;99.90;;;;;;5079141;28;20024;-68
2020/12/30 08:37:33;;;;;;;10.57;5.80;;;4.70;99.90;;;;;;5088329;28;20036;-69
2020/12/30 08:40:11;;;;;;;9.85;6.18;;;4.70;99.90;;;;;;5089149;28;20064;-67
2020/12/30 08:43:04;;;;;;;12.40;6.57;;;4.80;99.90;;;;;;5090587;28;20110;-68
2020/12/30 08:45:36;;;;;;;11.70;6.72;;;4.80;99.90;;;;;;5092729;28;20024;-68
2020/12/30 08:48:13;;;;;;;10.95;7.70;;;4.80;99.90;;;;;;5092080;28;20032;-69
2020/12/30 08:50:39;;;;;;;14.57;8.20;;;4.90;99.90;;;;;;5091031;28;20044;-69
2020/12/30 08:53:05;;;;;;;9.82;7.57;;;5.00;99.90;;;;;;5086588;28;20039;-68
2020/12/30 08:55:31;;;;;;;9.60;7.03;;;5.00;99.90;;;;;;5073285;28;20070;-68
2020/12/30 08:57:57;;;;;;;10.50;6.90;;;5.10;99.90;;;;;;5073033;28;20032;-68
2020/12/30 09:00:25;;;;;;;11.43;6.57;;;5.10;99.90;;;;;;5072455;28;20017;-68
2020/12/30 09:02:53;;;;;;;10.00;6.53;;;5.20;99.90;;;;;;5072036;28;20032;-69
2020/12/30 09:05:29;;;;;;;7.80;5.97;;;5.30;99.90;;;;;;5072741;28;20013;-68
2020/12/30 09:07:54;;;;;;;10.00;6.85;;;5.30;99.90;;;;;;5073391;28;20021;-69
2020/12/30 09:10:21;;;;;;;12.63;6.03;;;5.30;99.90;;;;;;5074529;28;20029;-69
2020/12/30 09:12:49;;;;;;;6.55;4.95;;;5.40;99.90;;;;;;5079019;28;20059;-69
2020/12/30 09:15:15;;;;;;;9.85;6.13;;;5.30;99.90;;;;;;5075859;28;20048;-68
2020/12/30 09:17:41;;;;;;;8.13;5.90;;;5.30;99.90;;;;;;5071523;28;20027;-67
2020/12/30 09:20:15;;;;;;;6.90;5.03;;;5.40;99.90;;;;;;5073044;28;20055;-69
2020/12/30 09:22:42;;;;;;;9.15;4.78;;;5.40;99.90;;;;;;5073236;28;20053;-68
2020/12/30 09:25:24;;;;;;;8.07;4.43;;;5.40;99.90;;;;;;5072263;28;20032;-69
2020/12/30 09:27:50;;;;;;;11.35;4.40;;;5.40;99.90;;;;;;5072060;28;20098;-69
2020/12/30 09:30:19;;;;;;;6.18;3.80;;;5.40;99.90;;;;;;5071254;28;20081;-69
2020/12/30 09:32:46;;;;;;;9.88;4.45;;;5.40;99.90;;;;;;5083662;28;20040;-70
2020/12/30 09:35:16;;;;;;;5.18;3.90;;;5.50;99.90;;;;;;5086018;28;20369;-68
2020/12/30 09:37:49;;;;;;;;;;;5.50;99.90;;;;;;5071863;28;20112;-68
2020/12/30 09:40:15;;;;;;;8.48;3.97;;;5.50;99.90;;;;;;5076747;28;19967;-69
2020/12/30 09:42:42;;;;;;;6.50;3.65;;;5.50;99.90;;;;;;5072113;28;20055;-69
2020/12/30 09:45:11;;;;;;;5.07;3.90;;;5.50;99.90;;;;;;5074064;28;20029;-67
2020/12/30 09:47:37;;;;;;;5.82;3.50;;;5.60;99.90;;;;;;5072154;28;20024;-68
2020/12/30 09:50:08;;;;;;;7.63;3.65;;;5.60;99.90;;;;;;5078806;28;20499;-68
2020/12/30 09:52:37;;;;;;;;;;;5.60;99.90;;;;;;5082233;28;20044;-69
2020/12/30 09:55:03;;;;;;;8.48;3.30;;;5.60;99.90;;;;;;5071607;28;19920;-69
2020/12/30 09:57:29;;;;;;;5.40;2.90;;;5.70;99.90;;;;;;5071381;28;20100;-69
2020/12/30 09:59:55;;;;;;;5.57;2.53;;;5.70;99.90;;;;;;5071000;28;20495;-69
2020/12/30 10:02:20;;;;;;;5.57;2.47;;;5.70;99.90;;;;;;5071455;28;20031;-69
2020/12/30 10:04:46;;;;;;;2.92;2.35;;;5.70;99.90;;;;;;5075749;28;20031;-69
2020/12/30 10:07:11;;;;;;;4.00;2.42;;;5.70;99.90;;;;;;5089033;28;20082;-69
2020/12/30 10:09:38;;;;;;;3.45;1.73;;;5.70;99.90;;;;;;5087897;28;20503;-67
2020/12/30 10:12:04;;;;;;;3.88;1.55;;;5.80;99.90;;;;;;5088169;28;20130;-69
2020/12/30 10:14:29;;;;;;;3.95;1.90;;;5.80;99.90;;;;;;5088378;28;20471;-69
2020/12/30 10:16:55;;;;;;;1.75;1.38;;;5.80;99.90;;;;;;5089453;28;20016;-68
2020/12/30 10:19:20;;;;;;;3.80;1.35;;;5.90;99.90;;;;;;5089186;28;20027;-68
2020/12/30 10:21:46;;;;;;;3.60;1.20;;;5.80;99.90;;;;;;5089844;28;20035;-68
2020/12/30 10:24:12;;;;;;;1.50;1.00;;;5.80;99.90;;;;;;5091725;28;20027;-68
2020/12/30 10:26:37;;;;;;;3.38;1.15;;;5.70;99.90;;;;;;5091580;28;20020;-68
2020/12/30 10:29:03;;;;;;;5.90;1.90;;;5.70;99.90;;;;;;5092154;28;20059;-68
2020/12/30 10:31:28;;;;;;;3.08;1.00;;;5.70;99.90;;;;;;5091045;28;20078;-69
2020/12/30 10:33:54;;;;;;;4.40;1.05;;;5.70;99.90;;;;;;5091373;28;20390;-69
2020/12/30 10:36:21;;;;;;;4.53;1.08;;;5.70;99.90;;;;;;5088654;28;20502;-68
2020/12/30 10:38:47;;;;;;;4.78;1.02;;;5.80;99.90;;;;;;5071975;28;20046;-68
2020/12/30 10:41:17;;;;;;;1.83;0.80;;;5.80;99.90;;;;;;5073652;28;20534;-69
2020/12/30 10:43:43;;;;;;;0.50;0.50;;;5.90;99.90;;;;;;5091791;28;20074;-69
2020/12/30 10:46:16;;;;;;;4.05;1.10;;;5.90;99.90;;;;;;5091491;28;20418;-68
2020/12/30 10:48:43;;;;;;;0.80;0.47;;;6.00;99.90;;;;;;5081677;28;20388;-69
2020/12/30 10:51:16;;;;;;;3.67;0.90;;;6.00;99.90;;;;;;5081910;28;20433;-68
2020/12/30 10:53:42;;;;;;;3.60;0.50;;;6.00;99.90;;;;;;5088739;28;20019;-68
2020/12/30 10:56:08;;;;;;;2.38;0.50;;;6.00;99.90;;;;;;5081834;28;20593;-68
2020/12/30 10:58:34;;;;;;;2.67;0.40;;;6.00;99.90;;;;;;5076979;28;20499;-69
2020/12/30 11:01:00;;;;;;;1.58;0.60;;;6.00;99.90;;;;;;5088444;28;20035;-68
2020/12/30 11:03:25;;;;;;;3.30;1.40;;;6.00;99.90;;;;;;5076097;28;20028;-68
2020/12/30 11:05:51;;;;;;;3.45;1.52;;;6.00;99.90;;;;;;5071330;28;20021;-69
2020/12/30 11:08:16;;;;;;;4.80;1.42;;;6.00;99.90;;;;;;5070348;28;20506;-68
2020/12/30 11:10:42;;;;;;;3.30;0.88;;;6.00;99.90;;;;;;5081364;28;20132;-69
2020/12/30 11:13:07;;;;;;;2.90;0.90;;;5.90;99.90;;;;;;5088120;28;20487;-69
2020/12/30 11:15:36;;;;;;;3.40;0.80;;;5.90;99.90;;;;;;5088137;28;20024;-69
2020/12/30 11:18:03;;;;;;;3.08;1.10;;;6.00;99.90;;;;;;5085982;28;20121;-69
2020/12/30 11:20:29;;;;;;;1.23;0.60;;;6.00;99.90;;;;;;5077543;28;20495;-68
2020/12/30 11:22:54;;;;;;;2.92;0.77;;;6.00;99.90;;;;;;5090460;28;20032;-69
2020/12/30 11:25:20;;;;;;;0.90;0.65;;;6.10;99.90;;;;;;5072663;28;20020;-69
2020/12/30 11:27:45;;;;;;;2.00;0.77;;;6.20;99.90;;;;;;5075104;28;20107;-69
2020/12/30 11:30:11;;;;;;;7.68;1.08;;;6.20;99.90;;;;;;5074124;28;20021;-70
2020/12/30 11:32:37;;;;;;;3.38;0.88;;;6.20;99.90;;;;;;5074223;28;20070;-69
2020/12/30 11:35:02;;;;;;;3.25;0.90;;;6.20;99.90;;;;;;5074765;28;20085;-69
2020/12/30 11:37:28;;;;;;;2.40;0.75;;;6.20;99.90;;;;;;5073913;28;20059;-70
2020/12/30 11:39:53;;;;;;;1.83;0.70;;;6.20;99.90;;;;;;5074832;28;20048;-70
2020/12/30 11:42:20;;;;;;;1.05;0.80;;;6.30;99.90;;;;;;5074256;28;20461;-70
2020/12/30 11:44:46;;;;;;;1.88;1.08;;;6.40;99.90;;;;;;5074153;28;20029;-69
2020/12/30 11:47:11;;;;;;;10.48;1.17;;;6.30;99.90;;;;;;5074228;28;20036;-70
2020/12/30 11:49:37;;;;;;;2.53;0.93;;;6.40;99.90;;;;;;5074874;28;20024;-68
2020/12/30 11:52:02;;;;;;;4.93;4.38;;;6.40;99.90;;;;;;5078585;28;20384;-69
2020/12/30 11:54:28;;;;;;;6.65;1.20;;;6.40;99.90;;;;;;5089138;28;20035;-70
2020/12/30 11:56:53;;;;;;;1.73;1.00;;;6.40;99.90;;;;;;5090651;28;20016;-70
2020/12/30 11:59:19;;;;;;;3.70;0.98;;;6.40;99.90;;;;;;5087250;28;20020;-69
2020/12/30 12:01:45;;;;;;;3.72;1.00;;;6.40;99.90;;;;;;5082293;28;20035;-70
2020/12/30 12:04:10;;;;;;;7.15;1.45;;;6.50;99.90;;;;;;5090104;28;20048;-69
2020/12/30 12:06:35;;;;;;;1.75;1.33;;;6.50;99.90;;;;;;5092317;28;20410;-69
2020/12/30 12:09:01;;;;;;;5.22;1.23;;;6.60;99.90;;;;;;5090905;28;20468;-68
2020/12/30 12:11:27;;;;;;;71.25;48.30;;;6.70;99.90;;;;;;5088754;28;20040;-68
2020/12/30 12:13:52;;;;;;;19.92;13.00;;;6.80;99.90;;;;;;5088400;28;20031;-70
2020/12/30 12:16:18;;;;;;;3.67;0.90;;;6.80;99.90;;;;;;5088691;28;20020;-69
2020/12/30 12:18:43;;;;;;;3.63;1.42;;;7.00;99.90;;;;;;5090577;28;20032;-70
2020/12/30 12:21:09;;;;;;;2.95;1.25;;;7.00;99.90;;;;;;5088977;28;20024;-70
2020/12/30 12:23:34;;;;;;;3.42;1.40;;;7.10;99.90;;;;;;5090197;28;20102;-70
2020/12/30 12:26:00;;;;;;;2.05;0.95;;;7.20;99.90;;;;;;5088324;28;20103;-70
2020/12/30 12:28:39;;;;;;;5.43;1.30;;;7.10;99.90;;;;;;5091409;28;20016;-69
2020/12/30 12:31:05;;;;;;;4.32;1.40;;;7.10;99.90;;;;;;5090059;28;20034;-69
2020/12/30 12:33:30;;;;;;;2.70;1.40;;;7.10;99.90;;;;;;5073187;28;20108;-69
2020/12/30 12:35:56;;;;;;;5.47;1.65;;;7.10;99.90;;;;;;5073862;28;20017;-70
2020/12/30 12:38:21;;;;;;;2.65;1.38;;;7.00;99.90;;;;;;5072713;28;20024;-69
2020/12/30 12:40:47;;;;;;;5.97;1.42;;;7.10;99.90;;;;;;5072970;28;20443;-70
2020/12/30 12:43:12;;;;;;;9.07;1.77;;;7.10;99.90;;;;;;5073006;28;20395;-69
2020/12/30 12:45:38;;;;;;;5.25;1.55;;;7.10;99.90;;;;;;5072933;28;20021;-70
2020/12/30 12:48:04;;;;;;;5.97;1.77;;;7.10;99.90;;;;;;5073004;28;20020;-69
2020/12/30 12:50:30;;;;;;;7.05;1.90;;;7.10;99.90;;;;;;5078092;28;20477;-69
2020/12/30 12:52:55;;;;;;;5.57;1.63;;;7.00;99.90;;;;;;5093569;28;20078;-69
2020/12/30 12:55:21;;;;;;;5.82;1.77;;;7.00;99.90;;;;;;5090463;28;20376;-70
2020/12/30 12:57:46;;;;;;;6.55;2.03;;;7.00;99.90;;;;;;5093506;28;20468;-70